Time;durP1;ratioP1;P1;durP2;ratioP2;P2;SDS_P1;SDS_P2;PMS_P1;PMS_P2;Temp;Humidity;BMP_temperature;BMP_pressure;BME280_temperature;BME280_humidity;BME280_pressure;Samples;Min_cycle;Max_cycle;Signal;HPM_P1;HPM_P2
2023/09/02 00:01:48;;;;;;;7.75;4.90;;;11.50;99.90;;;;;;5011873;28;20516;-63
2023/09/02 00:04:13;;;;;;;7.03;5.45;;;11.50;99.90;;;;;;5021661;28;20096;-62
2023/09/02 00:06:39;;;;;;;7.40;5.05;;;11.50;99.90;;;;;;5019897;28;20108;-63
2023/09/02 00:09:04;;;;;;;6.78;4.80;;;11.50;99.90;;;;;;5014191;28;20591;-63
2023/09/02 00:11:30;;;;;;;9.20;5.07;;;11.40;99.90;;;;;;5020513;28;20038;-62
2023/09/02 00:13:55;;;;;;;7.95;5.45;;;11.40;99.90;;;;;;5011813;28;20600;-56
2023/09/02 00:16:21;;;;;;;8.00;5.25;;;11.30;99.90;;;;;;5016903;28;20037;-57
2023/09/02 00:18:46;;;;;;;6.78;4.65;;;11.30;99.90;;;;;;5008963;28;20029;-56
2023/09/02 00:21:12;;;;;;;8.13;5.13;;;11.30;99.90;;;;;;5014273;28;20022;-58
2023/09/02 00:23:45;;;;;;;10.27;5.78;;;11.30;99.90;;;;;;5023474;28;20031;-56
2023/09/02 00:26:10;;;;;;;7.65;4.88;;;11.20;99.90;;;;;;5011616;28;20025;-58
2023/09/02 00:28:36;;;;;;;7.00;5.32;;;11.20;99.90;;;;;;5012884;28;20321;-58
2023/09/02 00:31:01;;;;;;;6.10;5.43;;;11.10;99.90;;;;;;5016210;28;20448;-58
2023/09/02 00:33:27;;;;;;;9.90;5.88;;;11.10;99.90;;;;;;5022056;28;20038;-58
2023/09/02 00:35:52;;;;;;;7.60;4.93;;;11.10;99.90;;;;;;5023629;28;20017;-58
2023/09/02 00:38:18;;;;;;;5.60;4.75;;;11.00;99.90;;;;;;5029224;28;20033;-58
2023/09/02 00:40:50;;;;;;;6.95;5.18;;;11.00;99.90;;;;;;5026941;28;20195;-57
2023/09/02 00:43:15;;;;;;;5.90;4.82;;;11.00;99.90;;;;;;5016136;28;20030;-58
2023/09/02 00:45:41;;;;;;;7.22;5.95;;;10.90;99.90;;;;;;5029943;28;20040;-58
2023/09/02 00:48:07;;;;;;;8.85;5.18;;;10.90;99.90;;;;;;5026144;28;20037;-58
2023/09/02 00:50:35;;;;;;;8.02;6.43;;;10.80;99.90;;;;;;5024402;28;20132;-58
2023/09/02 00:53:00;;;;;;;7.90;6.20;;;10.80;99.90;;;;;;5022734;28;20029;-58
2023/09/02 00:55:26;;;;;;;9.80;5.88;;;10.80;99.90;;;;;;5023648;28;20509;-59
2023/09/02 00:57:52;;;;;;;9.40;5.80;;;10.80;99.90;;;;;;5024791;28;20036;-58
2023/09/02 01:00:18;;;;;;;8.77;6.53;;;10.70;99.90;;;;;;5025000;28;20028;-58
2023/09/02 01:02:45;;;;;;;7.60;5.78;;;10.70;99.90;;;;;;5022950;28;20025;-58
2023/09/02 01:05:11;;;;;;;9.00;6.03;;;10.70;99.90;;;;;;5022902;28;20030;-58
2023/09/02 01:07:37;;;;;;;7.10;4.97;;;10.70;99.90;;;;;;5022578;28;20071;-58
2023/09/02 01:10:03;;;;;;;6.22;5.25;;;10.60;99.90;;;;;;5022691;28;20121;-57
2023/09/02 01:12:29;;;;;;;8.05;6.13;;;10.60;99.90;;;;;;5022668;28;20039;-58
2023/09/02 01:14:55;;;;;;;7.97;5.63;;;10.60;99.90;;;;;;5024483;28;20052;-58
2023/09/02 01:17:20;;;;;;;6.50;4.75;;;10.60;99.90;;;;;;5023746;28;20053;-58
2023/09/02 01:19:49;;;;;;;7.95;5.25;;;10.50;99.90;;;;;;5019102;28;20033;-58
2023/09/02 01:22:42;;;;;;;7.15;4.75;;;10.50;99.90;;;;;;5022753;28;20481;-58
2023/09/02 01:25:52;;;;;;;6.30;4.97;;;10.50;99.90;;;;;;5023042;28;20025;-59
2023/09/02 01:28:20;;;;;;;5.80;5.00;;;10.40;99.90;;;;;;5015750;28;20037;-58
2023/09/02 01:30:48;;;;;;;9.45;5.32;;;10.40;99.90;;;;;;5020602;28;20069;-58
2023/09/02 01:33:17;;;;;;;7.00;5.82;;;10.40;99.90;;;;;;5022246;28;20030;-57
2023/09/02 01:35:44;;;;;;;6.40;5.25;;;10.40;99.90;;;;;;5026391;28;20022;-58
2023/09/02 01:38:10;;;;;;;6.95;5.10;;;10.40;99.90;;;;;;5022144;28;20059;-58
2023/09/02 01:40:36;;;;;;;9.98;5.47;;;10.30;99.90;;;;;;5022130;28;20049;-58
2023/09/02 01:43:04;;;;;;;5.95;4.30;;;10.30;99.90;;;;;;5025097;28;20040;-58
2023/09/02 01:45:33;;;;;;;6.25;4.68;;;10.30;99.90;;;;;;5019872;28;20101;-57
2023/09/02 01:47:59;;;;;;;5.95;4.70;;;10.30;99.90;;;;;;5024915;28;20488;-58
2023/09/02 01:50:28;;;;;;;5.78;4.07;;;10.20;99.90;;;;;;5018673;28;20517;-58
2023/09/02 01:52:55;;;;;;;7.50;4.85;;;10.20;99.90;;;;;;5023363;28;20021;-58
2023/09/02 01:55:21;;;;;;;5.85;4.68;;;10.20;99.90;;;;;;5022756;28;20064;-58
2023/09/02 01:57:47;;;;;;;7.45;4.25;;;10.20;99.90;;;;;;5019506;28;20109;-58
2023/09/02 02:00:13;;;;;;;6.88;4.32;;;10.20;99.90;;;;;;5024523;28;20474;-58
2023/09/02 02:02:39;;;;;;;5.45;4.32;;;10.20;99.90;;;;;;5019172;28;20022;-58
2023/09/02 02:05:12;;;;;;;6.60;4.13;;;10.20;99.90;;;;;;5031846;28;20107;-58
2023/09/02 02:07:41;;;;;;;5.75;4.47;;;10.10;99.90;;;;;;5019658;28;20026;-59
2023/09/02 02:10:11;;;;;;;5.82;4.68;;;10.10;99.90;;;;;;5016453;28;20049;-58
2023/09/02 02:12:40;;;;;;;5.78;4.75;;;10.10;99.90;;;;;;5022982;28;20032;-56
2023/09/02 02:15:10;;;;;;;5.43;4.63;;;10.10;99.90;;;;;;5016551;28;20481;-58
2023/09/02 02:17:39;;;;;;;6.38;4.32;;;10.00;99.90;;;;;;5015743;28;20389;-58
2023/09/02 02:20:05;;;;;;;5.90;4.50;;;10.00;99.90;;;;;;5024860;28;20078;-58
2023/09/02 02:22:31;;;;;;;4.38;3.92;;;10.00;99.90;;;;;;5024310;28;20113;-59
2023/09/02 02:24:56;;;;;;;6.70;4.10;;;10.00;99.90;;;;;;5023249;28;20215;-58
2023/09/02 02:27:22;;;;;;;5.95;4.28;;;10.00;99.90;;;;;;5021105;28;20041;-58
2023/09/02 02:29:47;;;;;;;5.00;3.67;;;10.00;99.90;;;;;;5020919;28;20036;-59
2023/09/02 02:32:13;;;;;;;7.05;4.65;;;10.00;99.90;;;;;;5022809;28;20057;-59
2023/09/02 02:34:38;;;;;;;4.47;3.88;;;10.10;99.90;;;;;;5025110;28;20033;-59
2023/09/02 02:37:04;;;;;;;7.85;4.25;;;10.10;99.90;;;;;;5021174;28;20504;-59
2023/09/02 02:39:30;;;;;;;8.15;4.20;;;10.10;99.90;;;;;;5020755;28;20036;-59
2023/09/02 02:41:55;;;;;;;5.50;3.83;;;10.10;99.90;;;;;;5028247;28;20283;-58
2023/09/02 02:44:20;;;;;;;5.97;3.95;;;10.20;99.90;;;;;;5017519;28;20021;-59
2023/09/02 02:46:47;;;;;;;6.47;3.72;;;10.10;99.90;;;;;;5023171;28;20026;-58
2023/09/02 02:49:12;;;;;;;5.80;4.15;;;10.10;99.90;;;;;;5023091;28;20112;-58
2023/09/02 02:51:38;;;;;;;4.50;4.03;;;10.10;99.90;;;;;;5017447;28;20105;-58
2023/09/02 02:54:03;;;;;;;6.05;4.15;;;10.10;99.90;;;;;;5021377;28;20037;-59
2023/09/02 02:56:29;;;;;;;4.38;3.60;;;10.10;99.90;;;;;;5022125;28;20018;-59
2023/09/02 02:58:55;;;;;;;7.50;3.72;;;10.00;99.90;;;;;;5027091;28;20029;-58
2023/09/02 03:01:21;;;;;;;5.22;3.70;;;10.00;99.90;;;;;;5022447;28;20117;-59
2023/09/02 03:03:47;;;;;;;6.95;4.13;;;10.00;99.90;;;;;;5020302;28;20108;-59
2023/09/02 03:06:18;;;;;;;7.07;4.30;;;10.00;99.90;;;;;;5020523;28;20029;-58
2023/09/02 03:08:43;;;;;;;5.55;3.88;;;10.00;99.90;;;;;;5015381;28;20037;-58
2023/09/02 03:11:09;;;;;;;5.05;4.20;;;9.90;99.90;;;;;;5021217;28;20040;-58
2023/09/02 03:13:34;;;;;;;5.25;4.20;;;9.90;99.90;;;;;;5019190;28;20464;-59
2023/09/02 03:16:01;;;;;;;10.73;4.28;;;9.90;99.90;;;;;;5018408;28;20061;-59
2023/09/02 03:18:27;;;;;;;7.38;4.25;;;9.80;99.90;;;;;;5030890;28;20520;-59
2023/09/02 03:20:53;;;;;;;5.30;3.35;;;9.80;99.90;;;;;;5020159;28;20057;-59
2023/09/02 03:23:18;;;;;;;4.15;3.45;;;9.80;99.90;;;;;;5020240;28;20040;-58
2023/09/02 03:25:44;;;;;;;5.53;4.13;;;9.70;99.90;;;;;;5015605;28;20248;-58
2023/09/02 03:28:09;;;;;;;4.57;3.83;;;9.70;99.90;;;;;;5021600;28;20079;-57
2023/09/02 03:30:35;;;;;;;6.20;3.67;;;9.70;99.90;;;;;;5017398;28;20029;-59
2023/09/02 03:33:00;;;;;;;5.18;3.70;;;9.60;99.90;;;;;;5019922;28;20505;-58
2023/09/02 03:35:26;;;;;;;4.60;4.20;;;9.60;99.90;;;;;;5018677;28;20101;-58
2023/09/02 03:37:51;;;;;;;6.57;4.10;;;9.60;99.90;;;;;;5020177;28;20057;-59
2023/09/02 03:40:18;;;;;;;5.10;3.72;;;9.60;99.90;;;;;;5018690;28;20405;-58
2023/09/02 03:42:43;;;;;;;4.30;3.83;;;9.50;99.90;;;;;;5023811;28;20088;-58
2023/09/02 03:45:09;;;;;;;4.70;3.90;;;9.50;99.90;;;;;;5018535;28;20049;-58
2023/09/02 03:47:36;;;;;;;7.53;4.20;;;9.50;99.90;;;;;;5020110;28;20033;-58
2023/09/02 03:50:05;;;;;;;7.90;4.40;;;9.50;99.90;;;;;;5017976;28;20237;-58
2023/09/02 03:52:30;;;;;;;4.63;3.53;;;9.40;99.90;;;;;;5015005;28;20034;-59
2023/09/02 03:54:57;;;;;;;4.75;4.00;;;9.40;99.90;;;;;;5028247;28;20449;-59
2023/09/02 03:57:22;;;;;;;5.53;4.57;;;9.40;99.90;;;;;;5019906;28;20113;-59
2023/09/02 03:59:48;;;;;;;6.97;4.18;;;9.40;99.90;;;;;;5019875;28;20105;-59
2023/09/02 04:02:16;;;;;;;7.03;4.20;;;9.30;99.90;;;;;;5015019;28;20025;-58
2023/09/02 04:04:41;;;;;;;6.63;5.15;;;9.30;99.90;;;;;;5020779;28;20021;-58
2023/09/02 04:07:07;;;;;;;7.20;4.50;;;9.30;99.90;;;;;;5022161;28;20595;-57
2023/09/02 04:09:35;;;;;;;7.60;5.20;;;9.30;99.90;;;;;;5019905;28;20033;-58
2023/09/02 04:12:02;;;;;;;6.65;5.35;;;9.30;99.90;;;;;;5017155;28;23275;-58
2023/09/02 04:14:27;;;;;;;5.75;4.80;;;9.30;99.90;;;;;;5015059;28;20493;-57
2023/09/02 04:16:54;;;;;;;7.15;5.43;;;9.20;99.90;;;;;;5018125;28;20076;-58
2023/09/02 04:19:19;;;;;;;5.72;4.60;;;9.20;99.90;;;;;;5018719;28;20034;-57
2023/09/02 04:21:47;;;;;;;5.13;4.38;;;9.20;99.90;;;;;;5025683;28;20091;-57
2023/09/02 04:24:12;;;;;;;7.90;5.25;;;9.20;99.90;;;;;;5018323;28;20029;-58
2023/09/02 04:26:38;;;;;;;7.30;5.07;;;9.20;99.90;;;;;;5019467;28;20096;-58
2023/09/02 04:29:03;;;;;;;6.68;4.57;;;9.20;99.90;;;;;;5020993;28;20034;-58
2023/09/02 04:31:29;;;;;;;5.72;4.97;;;9.20;99.90;;;;;;5021936;28;20044;-58
2023/09/02 04:33:55;;;;;;;6.50;4.68;;;9.30;99.90;;;;;;5019374;28;20029;-58
2023/09/02 04:36:21;;;;;;;12.68;5.00;;;9.30;99.90;;;;;;5020240;28;20079;-58
2023/09/02 04:38:46;;;;;;;6.32;4.40;;;9.30;99.90;;;;;;5021188;28;20192;-58
2023/09/02 04:41:12;;;;;;;7.82;5.25;;;9.30;99.90;;;;;;5019768;28;20172;-58
2023/09/02 04:43:38;;;;;;;6.93;4.50;;;9.30;99.90;;;;;;5019528;28;20389;-58
2023/09/02 04:46:04;;;;;;;5.75;5.00;;;9.40;99.90;;;;;;5021574;28;20147;-58
2023/09/02 04:48:29;;;;;;;8.65;4.78;;;9.40;99.90;;;;;;5022827;28;20018;-58
2023/09/02 04:50:56;;;;;;;5.53;4.05;;;9.50;99.90;;;;;;5028925;28;20517;-58
2023/09/02 04:53:22;;;;;;;4.95;4.13;;;9.50;99.90;;;;;;5013404;28;20026;-60
2023/09/02 04:55:48;;;;;;;3.75;3.38;;;9.50;99.90;;;;;;5018572;28;20074;-63
2023/09/02 04:58:14;;;;;;;6.55;4.22;;;9.60;99.90;;;;;;5019630;28;20493;-76
2023/09/02 05:00:40;;;;;;;3.92;3.33;;;9.70;99.90;;;;;;5020470;28;20029;-75
2023/09/02 05:03:06;;;;;;;4.60;4.07;;;9.80;99.90;;;;;;5015438;28;20041;-76
2023/09/02 05:05:31;;;;;;;5.10;3.72;;;9.80;99.90;;;;;;5018189;28;20082;-76
2023/09/02 05:07:58;;;;;;;4.05;3.60;;;9.90;99.90;;;;;;5021448;28;20048;-76
2023/09/02 05:10:23;;;;;;;5.78;3.50;;;10.20;99.90;;;;;;5012674;28;20371;-76
2023/09/02 05:12:49;;;;;;;5.45;3.38;;;10.60;99.90;;;;;;5026993;28;20049;-76
2023/09/02 05:15:14;;;;;;;4.32;3.13;;;11.40;99.90;;;;;;5028215;28;20483;-76
2023/09/02 05:17:40;;;;;;;3.70;2.78;;;12.20;99.90;;;;;;5032340;28;20558;-76
2023/09/02 05:20:06;;;;;;;2.83;2.50;;;13.00;99.90;;;;;;5027642;28;20053;-76
2023/09/02 05:22:34;;;;;;;4.82;2.50;;;13.80;99.90;;;;;;5014946;28;20025;-76
2023/09/02 05:24:59;;;;;;;4.72;3.33;;;14.60;99.90;;;;;;5020085;28;20026;-76
2023/09/02 05:27:25;;;;;;;4.25;2.63;;;15.30;99.90;;;;;;5024005;28;20033;-77
2023/09/02 05:29:51;;;;;;;4.45;2.72;;;16.10;99.90;;;;;;5017607;28;20033;-77
2023/09/02 05:32:16;;;;;;;2.80;2.60;;;16.80;97.80;;;;;;5017688;28;20092;-76
2023/09/02 05:34:42;;;;;;;3.20;2.50;;;17.40;95.20;;;;;;5019710;28;20037;-75
2023/09/02 05:37:08;;;;;;;4.15;2.70;;;18.10;93.90;;;;;;5023355;28;20041;-77
2023/09/02 05:39:33;;;;;;;3.72;2.45;;;18.70;92.90;;;;;;5020523;28;20068;-77
2023/09/02 05:41:59;;;;;;;3.03;2.55;;;19.30;91.60;;;;;;5015963;28;20049;-78
2023/09/02 05:44:24;;;;;;;3.22;2.53;;;19.90;90.30;;;;;;5022937;28;20045;-77
2023/09/02 05:46:50;;;;;;;5.53;2.72;;;20.40;85.80;;;;;;5017239;28;20087;-77
2023/09/02 05:49:16;;;;;;;5.53;2.17;;;21.00;86.40;;;;;;5025114;28;20034;-77
2023/09/02 05:51:41;;;;;;;3.45;2.40;;;21.50;82.40;;;;;;5022739;28;20029;-76
2023/09/02 05:54:09;;;;;;;2.63;2.42;;;21.90;81.20;;;;;;5024841;28;20044;-77
2023/09/02 05:56:35;;;;;;;2.85;2.65;;;22.40;80.10;;;;;;5022725;28;20028;-78
2023/09/02 05:59:01;;;;;;;3.03;2.65;;;22.80;76.70;;;;;;5022286;28;20124;-77
2023/09/02 06:01:27;;;;;;;2.55;2.30;;;23.40;75.40;;;;;;5018343;28;20057;-75
2023/09/02 06:03:52;;;;;;;2.83;2.22;;;24.00;73.50;;;;;;5020798;28;20454;-77
2023/09/02 06:06:18;;;;;;;5.03;2.92;;;24.50;70.80;;;;;;5027268;28;20045;-77
2023/09/02 06:08:43;;;;;;;3.15;2.85;;;24.90;69.20;;;;;;5024403;28;20100;-76
2023/09/02 06:11:09;;;;;;;3.58;2.50;;;25.20;65.60;;;;;;5022091;28;20060;-75
2023/09/02 06:13:35;;;;;;;2.85;2.50;;;25.50;63.80;;;;;;5018774;28;20520;-75
2023/09/02 06:16:02;;;;;;;3.35;2.85;;;26.00;62.90;;;;;;5028242;28;20036;-75
2023/09/02 06:18:29;;;;;;;3.15;2.50;;;26.40;61.10;;;;;;5026455;28;20559;-75
2023/09/02 06:20:55;;;;;;;4.78;2.88;;;26.30;60.50;;;;;;5021673;28;20444;-76
2023/09/02 06:23:21;;;;;;;3.97;3.20;;;25.60;59.70;;;;;;5027675;28;20029;-75
2023/09/02 06:25:58;;;;;;;3.00;2.70;;;24.60;61.70;;;;;;5014942;28;20022;-74
2023/09/02 06:28:24;;;;;;;5.50;2.40;;;24.40;60.10;;;;;;5018174;28;20052;-76
2023/09/02 06:30:50;;;;;;;3.83;2.60;;;25.00;60.70;;;;;;5023048;28;20112;-75
2023/09/02 06:33:16;;;;;;;3.13;2.33;;;25.70;58.30;;;;;;5022510;28;20104;-74
2023/09/02 06:35:42;;;;;;;3.60;2.75;;;26.40;57.60;;;;;;5021527;28;20021;-74
2023/09/02 06:38:07;;;;;;;4.10;2.35;;;27.10;55.00;;;;;;5019625;28;20014;-74
2023/09/02 06:40:33;;;;;;;4.43;2.40;;;27.60;53.30;;;;;;5031933;28;20456;-74
2023/09/02 06:42:59;;;;;;;5.28;2.50;;;28.20;52.00;;;;;;5019945;28;20050;-74
2023/09/02 06:45:25;;;;;;;2.90;2.45;;;28.70;50.60;;;;;;5021800;28;20066;-74
2023/09/02 06:47:51;;;;;;;3.75;2.65;;;29.00;48.40;;;;;;5018926;28;20036;-75
2023/09/02 06:50:17;;;;;;;2.65;1.85;;;29.30;47.50;;;;;;5021131;28;20041;-74
2023/09/02 06:52:42;;;;;;;3.13;2.10;;;29.80;46.20;;;;;;5017535;28;20200;-74
2023/09/02 06:55:08;;;;;;;4.85;2.22;;;30.10;44.60;;;;;;5023506;28;20451;-73
2023/09/02 06:57:34;;;;;;;2.08;1.88;;;30.60;42.80;;;;;;5022823;28;20031;-73
2023/09/02 06:59:59;;;;;;;3.88;2.35;;;30.90;42.00;;;;;;5021692;28;20404;-72
2023/09/02 07:02:25;;;;;;;4.22;2.33;;;31.10;39.80;;;;;;5017883;28;20085;-73
2023/09/02 07:04:50;;;;;;;3.42;2.40;;;31.30;37.90;;;;;;5015983;28;20163;-73
2023/09/02 07:07:16;;;;;;;2.45;2.22;;;31.60;37.20;;;;;;5011407;28;20029;-73
2023/09/02 07:09:42;;;;;;;3.05;2.60;;;31.90;36.20;;;;;;5013826;28;20036;-73
2023/09/02 07:12:07;;;;;;;2.30;2.08;;;32.10;34.40;;;;;;5014228;28;20493;-73
2023/09/02 07:14:33;;;;;;;2.20;1.90;;;32.40;33.50;;;;;;5011499;28;20061;-73
2023/09/02 07:16:58;;;;;;;2.50;1.95;;;32.50;32.50;;;;;;5016103;28;20088;-73
2023/09/02 07:19:24;;;;;;;3.88;2.13;;;32.70;32.00;;;;;;5015855;28;20022;-74
2023/09/02 07:21:50;;;;;;;3.17;2.08;;;32.90;30.10;;;;;;5014774;28;20717;-72
2023/09/02 07:24:15;;;;;;;2.60;2.13;;;33.00;28.90;;;;;;5014430;28;20064;-72
2023/09/02 07:26:41;;;;;;;2.65;2.10;;;33.10;28.20;;;;;;5013126;28;20075;-73
2023/09/02 07:29:07;;;;;;;2.85;2.45;;;33.20;27.20;;;;;;5019650;28;20409;-72
2023/09/02 07:31:32;;;;;;;2.58;2.20;;;33.20;26.70;;;;;;5022120;28;20049;-72
2023/09/02 07:33:58;;;;;;;2.83;2.08;;;33.10;25.90;;;;;;5013442;28;20549;-72
2023/09/02 07:36:24;;;;;;;4.32;2.22;;;32.90;24.90;;;;;;5011040;28;20462;-73
2023/09/02 07:38:49;;;;;;;4.28;2.50;;;32.70;25.20;;;;;;5016979;28;20037;-72
2023/09/02 07:41:15;;;;;;;4.95;2.30;;;32.60;24.90;;;;;;5020745;28;20103;-73
2023/09/02 07:43:40;;;;;;;3.20;2.67;;;32.50;24.70;;;;;;5017901;28;20025;-72
2023/09/02 07:46:06;;;;;;;2.92;2.30;;;32.40;24.00;;;;;;5014772;28;20058;-72
2023/09/02 07:48:31;;;;;;;4.75;2.03;;;32.30;23.80;;;;;;5015439;28;20620;-71
2023/09/02 07:50:57;;;;;;;6.00;2.20;;;32.30;23.60;;;;;;5011662;28;20034;-72
2023/09/02 07:53:22;;;;;;;5.35;2.30;;;32.40;22.90;;;;;;5016016;28;20048;-72
2023/09/02 07:55:48;;;;;;;8.50;2.67;;;32.20;22.60;;;;;;5015085;28;20493;-72
2023/09/02 07:58:13;;;;;;;4.90;2.13;;;32.10;22.50;;;;;;5012986;28;20033;-72
2023/09/02 08:00:39;;;;;;;5.03;2.40;;;32.10;22.80;;;;;;5021551;28;20025;-72
2023/09/02 08:03:05;;;;;;;7.88;3.33;;;32.00;22.90;;;;;;5020186;28;20025;-71
2023/09/02 08:05:30;;;;;;;11.40;4.57;;;31.90;23.00;;;;;;5013501;28;20740;-70
2023/09/02 08:07:57;;;;;;;8.90;3.47;;;31.80;23.70;;;;;;5016557;28;20051;-72
2023/09/02 08:10:22;;;;;;;33.72;13.73;;;31.60;24.00;;;;;;5014037;28;20038;-72
2023/09/02 08:12:48;;;;;;;13.60;7.13;;;31.20;26.80;;;;;;5015777;28;20029;-71
2023/09/02 08:15:14;;;;;;;9.45;4.70;;;30.90;27.30;;;;;;5018258;28;20048;-72
2023/09/02 08:17:41;;;;;;;14.32;6.80;;;30.70;27.10;;;;;;5012579;28;20088;-72
2023/09/02 08:20:08;;;;;;;8.63;4.72;;;30.60;29.00;;;;;;5019340;28;20118;-73
2023/09/02 08:22:36;;;;;;;8.55;3.58;;;30.30;27.80;;;;;;5013326;28;20555;-72
2023/09/02 08:25:03;;;;;;;2.60;2.40;;;30.10;26.80;;;;;;5014561;28;20025;-72
2023/09/02 08:27:29;;;;;;;3.70;2.30;;;29.90;26.70;;;;;;5011673;28;20034;-73
2023/09/02 08:29:54;;;;;;;2.85;1.85;;;29.80;26.30;;;;;;5015381;28;20052;-72
2023/09/02 08:32:20;;;;;;;2.17;1.70;;;29.80;25.90;;;;;;5019802;28;20045;-72
2023/09/02 08:34:45;;;;;;;2.97;1.60;;;29.70;25.40;;;;;;5015852;28;20036;-72
2023/09/02 08:37:10;;;;;;;1.75;1.25;;;29.60;24.90;;;;;;5012960;28;20042;-71
2023/09/02 08:39:36;;;;;;;2.33;1.85;;;29.50;24.60;;;;;;5012125;28;20455;-71
2023/09/02 08:42:02;;;;;;;1.48;1.30;;;29.40;24.50;;;;;;5013673;28;20030;-72
2023/09/02 08:44:28;;;;;;;2.35;1.40;;;29.40;23.60;;;;;;5014662;28;20112;-72
2023/09/02 08:46:54;;;;;;;2.20;1.60;;;29.40;23.40;;;;;;5016496;28;20040;-72
2023/09/02 08:49:20;;;;;;;2.13;1.45;;;29.40;23.20;;;;;;5009289;28;20030;-72
2023/09/02 08:51:46;;;;;;;2.42;1.38;;;29.40;22.80;;;;;;5017942;28;20991;-72
2023/09/02 08:54:16;;;;;;;2.47;1.63;;;29.50;22.50;;;;;;5023104;28;20428;-72
2023/09/02 08:56:42;;;;;;;2.33;1.75;;;29.50;21.50;;;;;;5023015;28;20501;-71
2023/09/02 08:59:09;;;;;;;3.28;1.65;;;29.50;22.10;;;;;;5023246;28;20101;-71
2023/09/02 09:01:43;;;;;;;3.85;1.75;;;29.50;21.50;;;;;;5023235;28;20460;-72
2023/09/02 09:04:09;;;;;;;2.08;1.40;;;29.20;20.80;;;;;;5023022;28;20107;-71
2023/09/02 09:06:36;;;;;;;2.47;1.60;;;29.10;20.60;;;;;;5024164;28;20485;-71
2023/09/02 09:09:03;;;;;;;2.88;1.77;;;29.00;20.20;;;;;;5021503;28;20061;-71
2023/09/02 09:11:40;;;;;;;3.45;1.80;;;28.80;20.40;;;;;;5027253;28;20033;-71
2023/09/02 09:14:11;;;;;;;3.30;1.80;;;28.80;19.70;;;;;;5014656;28;20398;-72
2023/09/02 09:16:38;;;;;;;2.80;1.88;;;28.70;19.90;;;;;;5023559;28;20104;-71
2023/09/02 09:19:04;;;;;;;2.88;1.63;;;28.60;19.80;;;;;;5023449;28;20416;-72
2023/09/02 09:21:30;;;;;;;3.90;1.65;;;28.50;19.50;;;;;;5020436;28;20092;-72
2023/09/02 09:23:55;;;;;;;3.70;1.90;;;28.30;19.60;;;;;;5026188;28;20047;-71
2023/09/02 09:26:24;;;;;;;2.72;1.80;;;28.30;19.70;;;;;;5033240;28;20105;-72
2023/09/02 09:28:54;;;;;;;2.40;1.70;;;28.40;19.60;;;;;;5021031;28;20082;-72
2023/09/02 09:31:20;;;;;;;2.55;1.63;;;28.50;19.70;;;;;;5022481;28;20069;-73
2023/09/02 09:33:54;;;;;;;1.73;1.58;;;28.60;19.70;;;;;;5019061;28;20398;-73
2023/09/02 09:36:24;;;;;;;4.03;1.60;;;28.80;19.30;;;;;;5023951;28;20492;-72
2023/09/02 09:38:53;;;;;;;4.20;2.22;;;29.00;19.10;;;;;;5023979;28;20420;-72
2023/09/02 09:41:19;;;;;;;2.17;1.60;;;29.00;17.20;;;;;;5019283;28;20516;-73
2023/09/02 09:43:44;;;;;;;1.98;1.58;;;28.80;18.20;;;;;;5020693;28;20018;-72
2023/09/02 09:46:15;;;;;;;6.18;1.73;;;28.80;18.00;;;;;;5023270;28;20084;-72
2023/09/02 09:48:48;;;;;;;2.75;1.90;;;28.80;18.00;;;;;;5023873;28;20108;-72
2023/09/02 09:51:23;;;;;;;7.68;2.28;;;28.80;17.80;;;;;;5022189;28;20260;-72
2023/09/02 09:53:48;;;;;;;3.03;1.90;;;28.70;17.40;;;;;;5015887;28;20032;-72
2023/09/02 09:56:14;;;;;;;4.10;1.90;;;28.80;17.90;;;;;;5016765;28;20108;-73
2023/09/02 09:58:40;;;;;;;3.10;1.80;;;28.80;18.00;;;;;;5015804;28;20100;-73
2023/09/02 10:01:08;;;;;;;2.45;1.90;;;28.80;18.00;;;;;;5023403;28;20048;-73
2023/09/02 10:03:34;;;;;;;4.60;2.17;;;28.60;17.80;;;;;;5021139;28;20518;-72
2023/09/02 10:06:01;;;;;;;2.45;1.70;;;28.50;18.20;;;;;;5020052;28;20104;-73
2023/09/02 10:08:27;;;;;;;290.42;31.45;;;28.50;18.40;;;;;;5016028;28;20060;-72
2023/09/02 10:10:52;;;;;;;217.90;32.67;;;28.40;18.10;;;;;;5013697;28;20068;-73
2023/09/02 10:13:19;;;;;;;16.00;5.03;;;28.30;18.10;;;;;;5013678;28;20052;-72
2023/09/02 10:15:45;;;;;;;5.32;2.55;;;28.20;18.10;;;;;;5016626;28;20072;-73
2023/09/02 10:18:12;;;;;;;4.72;2.50;;;28.00;18.10;;;;;;5016583;28;20104;-74
2023/09/02 10:20:38;;;;;;;2.30;1.52;;;27.90;18.20;;;;;;5019214;28;20302;-73
2023/09/02 10:23:08;;;;;;;3.95;2.22;;;27.70;18.30;;;;;;5019719;28;20481;-74
2023/09/02 10:25:51;;;;;;;3.13;1.50;;;27.60;18.50;;;;;;5022307;28;20064;-73
2023/09/02 10:28:56;;;;;;;2.35;1.33;;;27.50;19.10;;;;;;5016262;28;20033;-73
2023/09/02 10:31:25;;;;;;;4.60;1.90;;;27.30;19.40;;;;;;4992844;28;20061;-74
2023/09/02 10:34:03;;;;;;;2.67;1.60;;;27.10;19.10;;;;;;5011686;28;20061;-74
2023/09/02 10:36:33;;;;;;;6.00;1.90;;;26.90;19.40;;;;;;5013624;28;20064;-75
2023/09/02 10:39:02;;;;;;;1.77;1.58;;;26.70;19.60;;;;;;5021483;28;20048;-74
2023/09/02 10:41:29;;;;;;;2.25;1.67;;;26.60;19.70;;;;;;5017546;28;20053;-75
2023/09/02 10:43:55;;;;;;;4.47;1.50;;;26.40;20.00;;;;;;5022753;28;20501;-74
2023/09/02 10:46:21;;;;;;;3.80;1.70;;;26.20;21.10;;;;;;5023105;28;20048;-75
2023/09/02 10:48:48;;;;;;;1.95;1.65;;;26.10;20.60;;;;;;5013377;28;20049;-74
2023/09/02 10:51:14;;;;;;;3.58;1.98;;;25.90;20.80;;;;;;5017063;28;20563;-75
2023/09/02 10:53:52;;;;;;;2.20;1.58;;;25.90;20.80;;;;;;5015020;28;20076;-75
2023/09/02 10:56:34;;;;;;;4.28;1.92;;;25.60;21.70;;;;;;5014706;28;20026;-75
2023/09/02 10:59:06;;;;;;;3.47;2.00;;;25.50;22.80;;;;;;5019144;28;20470;-75
2023/09/02 11:01:48;;;;;;;2.72;1.77;;;25.30;22.10;;;;;;5011683;28;20493;-60
2023/09/02 11:04:34;;;;;;;2.03;1.20;;;25.20;22.70;;;;;;5018689;28;20080;-64
2023/09/02 11:07:26;;;;;;;1.98;1.48;;;25.10;22.20;;;;;;5011107;28;20029;-64
2023/09/02 11:09:54;;;;;;;2.15;1.50;;;25.10;23.30;;;;;;5009727;28;20049;-64
2023/09/02 11:12:20;;;;;;;2.13;1.52;;;25.00;22.50;;;;;;5014759;28;20033;-64
2023/09/02 11:15:08;;;;;;;2.50;1.65;;;25.00;22.60;;;;;;5011023;28;20096;-64
2023/09/02 11:17:36;;;;;;;3.30;1.85;;;25.00;24.80;;;;;;5015370;28;20032;-64
2023/09/02 11:20:06;;;;;;;4.82;2.22;;;24.80;23.60;;;;;;5014104;28;20025;-64
2023/09/02 11:23:01;;;;;;;2.00;1.50;;;24.80;23.80;;;;;;5019218;28;20388;-64
2023/09/02 11:25:30;;;;;;;5.85;1.80;;;24.70;25.30;;;;;;5014462;28;20030;-64
2023/09/02 11:27:58;;;;;;;2.63;1.48;;;24.60;24.10;;;;;;5012142;28;20111;-65
2023/09/02 11:30:24;;;;;;;3.85;1.73;;;24.60;23.90;;;;;;5015088;28;20197;-64
2023/09/02 11:32:51;;;;;;;4.70;2.03;;;24.60;23.90;;;;;;5013721;28;20068;-64
2023/09/02 11:35:23;;;;;;;3.42;1.98;;;24.40;24.70;;;;;;5013477;28;20091;-64
2023/09/02 11:37:49;;;;;;;3.15;1.63;;;24.40;25.50;;;;;;5010628;28;20026;-64
2023/09/02 11:40:16;;;;;;;4.10;1.90;;;24.40;24.90;;;;;;5016142;28;20037;-65
2023/09/02 11:43:00;;;;;;;3.47;1.58;;;24.50;24.80;;;;;;5007936;28;20029;-64
2023/09/02 11:45:29;;;;;;;3.78;1.75;;;24.40;25.30;;;;;;5009335;28;20109;-64
2023/09/02 11:47:54;;;;;;;4.57;1.70;;;24.40;24.80;;;;;;5015199;28;20017;-64
2023/09/02 11:50:22;;;;;;;4.47;1.98;;;24.30;24.90;;;;;;5019092;28;20749;-64
2023/09/02 11:52:52;;;;;;;1.80;1.50;;;24.30;25.40;;;;;;5013675;28;20022;-64
2023/09/02 11:55:17;;;;;;;5.50;1.83;;;24.30;25.50;;;;;;5014477;28;20057;-64
2023/09/02 11:57:45;;;;;;;3.45;1.85;;;24.30;25.50;;;;;;5015439;28;20053;-65
2023/09/02 12:00:17;;;;;;;3.22;1.60;;;24.30;25.60;;;;;;5008164;28;20037;-65
2023/09/02 12:02:44;;;;;;;2.83;1.45;;;24.30;25.90;;;;;;5015853;28;20033;-64
2023/09/02 12:05:10;;;;;;;2.75;1.77;;;24.30;26.00;;;;;;5013288;28;20044;-64
2023/09/02 12:07:37;;;;;;;2.15;1.45;;;24.20;26.30;;;;;;5012433;28;20025;-64
2023/09/02 12:10:07;;;;;;;4.75;2.00;;;24.10;26.40;;;;;;5025431;28;20040;-64
2023/09/02 12:12:33;;;;;;;2.65;1.40;;;24.00;27.20;;;;;;5024912;28;20031;-63
2023/09/02 12:15:00;;;;;;;3.85;1.65;;;24.00;27.00;;;;;;5018856;28;20052;-60
2023/09/02 12:17:26;;;;;;;2.25;1.30;;;24.00;27.10;;;;;;5022659;28;20073;-60
2023/09/02 12:19:51;;;;;;;2.75;1.38;;;24.10;27.30;;;;;;5009785;28;20053;-61
2023/09/02 12:22:18;;;;;;;2.03;1.52;;;24.10;27.30;;;;;;5009051;28;20036;-61
2023/09/02 12:24:43;;;;;;;3.92;1.60;;;24.20;27.60;;;;;;5009538;28;20113;-63
2023/09/02 12:27:15;;;;;;;3.60;1.63;;;24.10;27.70;;;;;;5019025;28;20108;-61
2023/09/02 12:29:40;;;;;;;3.47;1.73;;;24.20;28.00;;;;;;5023715;28;20083;-61
2023/09/02 12:32:06;;;;;;;2.33;1.50;;;24.20;28.00;;;;;;5023976;28;20049;-61
2023/09/02 12:34:34;;;;;;;3.70;1.30;;;24.30;28.00;;;;;;5023823;28;20532;-62
2023/09/02 12:37:16;;;;;;;2.22;1.63;;;24.30;28.10;;;;;;5022897;28;20025;-61
2023/09/02 12:39:42;;;;;;;1.98;1.58;;;24.30;28.60;;;;;;5018874;28;20112;-62
2023/09/02 12:42:30;;;;;;;3.45;1.58;;;24.20;28.10;;;;;;5016778;28;20509;-61
2023/09/02 12:45:00;;;;;;;7.00;1.80;;;24.20;29.10;;;;;;5013242;28;21176;-61
2023/09/02 12:47:27;;;;;;;3.70;2.03;;;24.20;29.00;;;;;;5012138;28;20026;-62
2023/09/02 12:49:57;;;;;;;2.72;1.55;;;24.10;28.50;;;;;;5013963;28;20402;-62